Lyon, Mississippi
Current Conditions -  °F | °C
As of 9:55 PM on Wednesday 17 Dec 2014 (Local Time) from KCKM Reporting Station
Broken Clouds Broken Clouds  
Wind Chill: 36°   Ceiling: 8000
Heat Index: 41°   Visibility: 10mi
Dew Point: 37°   Wind: 8mph
Humidity: 87%   Direction: 10°N
Pressure: 30.25"   Gusts: NA
Location:  34.22°N, 90.54°W
Report Text: KCKM 180355Z AUTO 01007KT 10SM BKN080 05/03 A3025 RMK AO1
Loading
Personal Weather Stations






























Interactive Weather Map New forecast layout! Learn more

10-Day Weather Forecast

Advertisements
Track Severe Weather on mobile